Manea, United Kingdom
Current Conditions -  °F | °C
As of 1:58 PM on Monday 22 Dec 2014 (Local Time) from EGUN Reporting Station
Overcast Overcast  
Wind Chill: 55°   Ceiling: 2300
Heat Index: 55°   Visibility: 6mi
Dew Point: 49°   Wind: 18mph
Humidity: 78%   Direction: 240°WSW
Pressure: 29.93"   Gusts: 30mph
Location:  52.48°N, 0.18°E
Report Text: EGUN 221358Z AUTO 24016G26KT 9999 BKN023 OVC031 13/09 A2993 RMK AO2 PK WND 25034/1259 CIG 023V031 SLP138 T01300093
Loading
Personal Weather Stations






























Interactive Weather Map New forecast layout! Learn more

10-Day Weather Forecast

Advertisements
Track Severe Weather on mobile